South Windham, CT (06266)

3:11 AM EDT on July 01, 2015 (GMT -0400)
Charles H. Barrows STEM Academy | | Change Station
CLOSE
Current Station
Personal Weather Station
Location: Windham, CT
Elevation: 361 ft
Nearby Weather Stations

Elev 361 ft 41.72 °N, 72.18 °W | Updated 6 minutes ago

Overcast
Overcast
66.0 °F
Feels Like 66.0 °F
N
6.0
Wind Variable Wind from SSE

Today
High -- | Low -- °F
--% Chance of Precip.
Yesterday
High -- | Low -- °F
Precip. -- in
5:17 AM 8:26 PM
Waxing Gibbous, 99% visible
Pressure 29.86 in
Visibility 10.0 miles
Clouds Overcast 1300 ft
Dew Point 62 °F
Humidity 86%
Rainfall 0.00 in
Snow Depth Not available.
UV 0 out of 12
Pollen 3.10 out of 12
Air Quality Not available.
Flu Activity Not available.
METAR KIJD 010652Z AUTO 00000KT 10SM OVC013 20/17 A2987 RMK AO2 SLP112 T02000172

More Conditions Fewer Conditions

Pressure 29.86 in
Visibility 10.0 miles
Clouds Overcast 1300 ft
Dew Point 62 °F
Humidity 86%
Rainfall 0.00 in
Snow Depth Not available.
UV 0 out of 12
Pollen 3.10 out of 12
Air Quality Not available.
Flu Activity Not available.
METAR KIJD 010652Z AUTO 00000KT 10SM OVC013 20/17 A2987 RMK AO2 SLP112 T02000172

More Conditions Fewer Conditions

10-Day Weather Forecast

×

Almanac

Astronomy

Jul. 01, 2015 Rise Set
Actual Time
Civil Twilight
Nautical Twilight
Astronomical Twilight
Moon
Length of Visible Light
Length of Day
Tomorrow will be .
, % of the Moon is Illuminated

Today's Extremes

State Highs State Lows

Community

WunderPhotos

Upload Photos

1,834,163 photos uploaded!

WunderBlogs® & News

Nearby

Air Quality

  Air Quality AQ Index Pollutant
Not available.

Snow Depth

Station Depth Elevation

Earthquake Activity

City Distance Mag. Time & Date
Minimum magnitude displayed is 2.5.

Coastal Water Temperatures

Place Temperature

Stations

Nearby Weather Stations

Station Location Temp. Windchill Dew Point Humidity Wind Precip. Elev Updated Type